sensor_id;sensor_type;location;lat;lon;timestamp;temperature;humidity
2623;DHT22;1321;48.690;9.022;2023-09-19T00:00:58;18.50;99.90
2623;DHT22;1321;48.690;9.022;2023-09-19T00:03:51;18.50;99.90
2623;DHT22;1321;48.690;9.022;2023-09-19T00:06:45;18.60;1.00
2623;DHT22;1321;48.690;9.022;2023-09-19T00:09:14;18.60;1.00
2623;DHT22;1321;48.690;9.022;2023-09-19T00:11:42;18.50;99.90
2623;DHT22;1321;48.690;9.022;2023-09-19T00:14:11;18.50;1.00
2623;DHT22;1321;48.690;9.022;2023-09-19T00:16:52;18.50;99.90
2623;DHT22;1321;48.690;9.022;2023-09-19T00:19:36;18.50;99.90
2623;DHT22;1321;48.690;9.022;2023-09-19T00:22:30;18.40;1.00
2623;DHT22;1321;48.690;9.022;2023-09-19T00:25:29;18.50;1.00
2623;DHT22;1321;48.690;9.022;2023-09-19T00:27:59;18.50;99.90
2623;DHT22;1321;48.690;9.022;2023-09-19T00:30:55;18.60;99.90
2623;DHT22;1321;48.690;9.022;2023-09-19T00:33:29;18.60;99.90
2623;DHT22;1321;48.690;9.022;2023-09-19T00:35:58;18.50;99.90
2623;DHT22;1321;48.690;9.022;2023-09-19T00:38:51;18.60;99.90
2623;DHT22;1321;48.690;9.022;2023-09-19T00:41:28;18.50;1.00
2623;DHT22;1321;48.690;9.022;2023-09-19T00:43:57;18.30;99.90
2623;DHT22;1321;48.690;9.022;2023-09-19T00:46:27;18.40;8.20
2623;DHT22;1321;48.690;9.022;2023-09-19T00:48:57;18.40;99.90
2623;DHT22;1321;48.690;9.022;2023-09-19T00:51:25;18.50;78.70
2623;DHT22;1321;48.690;9.022;2023-09-19T00:53:54;18.40;99.90
2623;DHT22;1321;48.690;9.022;2023-09-19T00:56:23;18.50;99.90
2623;DHT22;1321;48.690;9.022;2023-09-19T00:58:51;18.50;1.00
2623;DHT22;1321;48.690;9.022;2023-09-19T01:01:20;18.60;1.00
2623;DHT22;1321;48.690;9.022;2023-09-19T01:03:48;18.60;99.90
2623;DHT22;1321;48.690;9.022;2023-09-19T01:06:19;18.60;99.90
2623;DHT22;1321;48.690;9.022;2023-09-19T01:08:48;18.50;99.90
2623;DHT22;1321;48.690;9.022;2023-09-19T01:11:21;18.50;99.90
2623;DHT22;1321;48.690;9.022;2023-09-19T01:14:00;18.50;99.90
2623;DHT22;1321;48.690;9.022;2023-09-19T01:16:35;18.50;99.90
2623;DHT22;1321;48.690;9.022;2023-09-19T01:19:32;18.50;1.00
2623;DHT22;1321;48.690;9.022;2023-09-19T01:22:14;18.50;99.90
2623;DHT22;1321;48.690;9.022;2023-09-19T01:28:13;18.60;95.40
2623;DHT22;1321;48.690;9.022;2023-09-19T01:30:45;18.60;99.90
2623;DHT22;1321;48.690;9.022;2023-09-19T01:33:15;18.60;89.30
2623;DHT22;1321;48.690;9.022;2023-09-19T01:35:44;18.70;1.00
2623;DHT22;1321;48.690;9.022;2023-09-19T01:38:12;18.60;1.00
2623;DHT22;1321;48.690;9.022;2023-09-19T01:40:42;18.70;1.00
2623;DHT22;1321;48.690;9.022;2023-09-19T01:43:16;18.70;1.00
2623;DHT22;1321;48.690;9.022;2023-09-19T01:45:56;18.70;99.90
2623;DHT22;1321;48.690;9.022;2023-09-19T01:48:35;18.70;19.40
2623;DHT22;1321;48.690;9.022;2023-09-19T01:51:08;18.60;94.00
2623;DHT22;1321;48.690;9.022;2023-09-19T01:53:41;18.70;99.90
2623;DHT22;1321;48.690;9.022;2023-09-19T01:56:25;18.70;1.00
2623;DHT22;1321;48.690;9.022;2023-09-19T01:58:58;18.50;99.90
2623;DHT22;1321;48.690;9.022;2023-09-19T02:01:29;18.50;99.90
2623;DHT22;1321;48.690;9.022;2023-09-19T02:03:58;18.50;99.90
2623;DHT22;1321;48.690;9.022;2023-09-19T02:06:26;18.50;99.90
2623;DHT22;1321;48.690;9.022;2023-09-19T02:08:55;18.60;99.90
2623;DHT22;1321;48.690;9.022;2023-09-19T02:11:23;18.60;19.20
2623;DHT22;1321;48.690;9.022;2023-09-19T02:13:52;18.60;56.40
2623;DHT22;1321;48.690;9.022;2023-09-19T02:16:21;18.50;99.90
2623;DHT22;1321;48.690;9.022;2023-09-19T02:18:51;18.50;2.40
2623;DHT22;1321;48.690;9.022;2023-09-19T02:21:19;18.50;99.90
2623;DHT22;1321;48.690;9.022;2023-09-19T02:23:48;18.50;99.90
2623;DHT22;1321;48.690;9.022;2023-09-19T02:26:18;18.40;28.20
2623;DHT22;1321;48.690;9.022;2023-09-19T02:28:46;18.40;99.90
2623;DHT22;1321;48.690;9.022;2023-09-19T02:31:14;18.40;99.90
2623;DHT22;1321;48.690;9.022;2023-09-19T02:33:43;18.50;99.90
2623;DHT22;1321;48.690;9.022;2023-09-19T02:36:14;18.40;99.90
2623;DHT22;1321;48.690;9.022;2023-09-19T02:38:44;18.40;99.90
2623;DHT22;1321;48.690;9.022;2023-09-19T02:41:12;18.40;1.00
2623;DHT22;1321;48.690;9.022;2023-09-19T02:43:41;18.40;99.90
2623;DHT22;1321;48.690;9.022;2023-09-19T02:46:10;18.40;1.00
2623;DHT22;1321;48.690;9.022;2023-09-19T02:48:38;18.40;99.90
2623;DHT22;1321;48.690;9.022;2023-09-19T02:51:07;18.30;1.00
2623;DHT22;1321;48.690;9.022;2023-09-19T02:53:36;18.30;35.20
2623;DHT22;1321;48.690;9.022;2023-09-19T02:56:05;18.30;1.00
2623;DHT22;1321;48.690;9.022;2023-09-19T02:58:34;18.30;1.00
2623;DHT22;1321;48.690;9.022;2023-09-19T03:01:08;18.20;1.00
2623;DHT22;1321;48.690;9.022;2023-09-19T03:03:38;18.20;1.00
2623;DHT22;1321;48.690;9.022;2023-09-19T03:06:08;18.20;1.00
2623;DHT22;1321;48.690;9.022;2023-09-19T03:08:37;18.30;99.90
2623;DHT22;1321;48.690;9.022;2023-09-19T03:11:06;18.30;1.00
2623;DHT22;1321;48.690;9.022;2023-09-19T03:13:41;18.40;1.00
2623;DHT22;1321;48.690;9.022;2023-09-19T03:16:16;18.40;99.90
2623;DHT22;1321;48.690;9.022;2023-09-19T03:18:46;18.40;1.00
2623;DHT22;1321;48.690;9.022;2023-09-19T03:21:14;18.40;99.90
2623;DHT22;1321;48.690;9.022;2023-09-19T03:23:45;18.30;1.00
2623;DHT22;1321;48.690;9.022;2023-09-19T03:26:14;18.30;1.00
2623;DHT22;1321;48.690;9.022;2023-09-19T03:28:43;18.30;1.00
2623;DHT22;1321;48.690;9.022;2023-09-19T03:31:13;18.30;1.00
2623;DHT22;1321;48.690;9.022;2023-09-19T03:33:41;18.40;99.90
2623;DHT22;1321;48.690;9.022;2023-09-19T03:36:09;18.40;99.90
2623;DHT22;1321;48.690;9.022;2023-09-19T03:38:39;18.40;1.00
2623;DHT22;1321;48.690;9.022;2023-09-19T03:41:08;18.30;1.00
2623;DHT22;1321;48.690;9.022;2023-09-19T03:43:41;18.40;1.00
2623;DHT22;1321;48.690;9.022;2023-09-19T03:46:09;18.30;99.90
2623;DHT22;1321;48.690;9.022;2023-09-19T03:48:39;18.30;99.90
2623;DHT22;1321;48.690;9.022;2023-09-19T03:51:08;18.30;99.90
2623;DHT22;1321;48.690;9.022;2023-09-19T03:53:37;18.30;99.90
2623;DHT22;1321;48.690;9.022;2023-09-19T03:56:06;18.30;1.00
2623;DHT22;1321;48.690;9.022;2023-09-19T03:59:01;18.30;1.00
2623;DHT22;1321;48.690;9.022;2023-09-19T04:02:01;18.30;1.00
2623;DHT22;1321;48.690;9.022;2023-09-19T04:05:46;18.30;99.90
2623;DHT22;1321;48.690;9.022;2023-09-19T04:09:21;18.20;1.00
2623;DHT22;1321;48.690;9.022;2023-09-19T04:19:40;18.20;99.90
2623;DHT22;1321;48.690;9.022;2023-09-19T04:23:11;18.20;99.90
2623;DHT22;1321;48.690;9.022;2023-09-19T04:26:45;18.10;1.00
2623;DHT22;1321;48.690;9.022;2023-09-19T04:30:09;18.00;99.90
2623;DHT22;1321;48.690;9.022;2023-09-19T04:32:59;18.10;1.00
2623;DHT22;1321;48.690;9.022;2023-09-19T04:35:55;18.10;99.90
2623;DHT22;1321;48.690;9.022;2023-09-19T04:38:59;18.10;99.90
2623;DHT22;1321;48.690;9.022;2023-09-19T04:41:28;18.20;1.00
2623;DHT22;1321;48.690;9.022;2023-09-19T04:43:57;18.20;1.00
2623;DHT22;1321;48.690;9.022;2023-09-19T04:46:25;18.20;1.00
2623;DHT22;1321;48.690;9.022;2023-09-19T04:48:57;18.30;99.90
2623;DHT22;1321;48.690;9.022;2023-09-19T04:51:26;18.10;1.00
2623;DHT22;1321;48.690;9.022;2023-09-19T04:53:57;18.10;99.90
2623;DHT22;1321;48.690;9.022;2023-09-19T04:56:27;18.10;99.90
2623;DHT22;1321;48.690;9.022;2023-09-19T04:58:59;18.10;99.90
2623;DHT22;1321;48.690;9.022;2023-09-19T05:01:28;18.10;99.90
2623;DHT22;1321;48.690;9.022;2023-09-19T05:03:58;18.10;99.90
2623;DHT22;1321;48.690;9.022;2023-09-19T05:06:26;18.10;99.90
2623;DHT22;1321;48.690;9.022;2023-09-19T05:08:54;18.10;1.00
2623;DHT22;1321;48.690;9.022;2023-09-19T05:11:28;18.20;45.80
2623;DHT22;1321;48.690;9.022;2023-09-19T05:14:03;18.00;99.90
2623;DHT22;1321;48.690;9.022;2023-09-19T05:16:45;18.00;1.00
2623;DHT22;1321;48.690;9.022;2023-09-19T05:19:26;18.00;1.00
2623;DHT22;1321;48.690;9.022;2023-09-19T05:22:10;18.00;1.00
2623;DHT22;1321;48.690;9.022;2023-09-19T05:25:07;18.00;1.00
2623;DHT22;1321;48.690;9.022;2023-09-19T05:27:53;17.90;1.00
2623;DHT22;1321;48.690;9.022;2023-09-19T05:30:39;18.00;45.20
2623;DHT22;1321;48.690;9.022;2023-09-19T05:33:32;18.00;1.00
2623;DHT22;1321;48.690;9.022;2023-09-19T05:36:51;18.00;36.40
2623;DHT22;1321;48.690;9.022;2023-09-19T05:39:43;17.90;1.00
2623;DHT22;1321;48.690;9.022;2023-09-19T05:42:25;18.00;1.00
2623;DHT22;1321;48.690;9.022;2023-09-19T05:44:57;18.00;31.20
2623;DHT22;1321;48.690;9.022;2023-09-19T05:47:26;17.90;99.90
2623;DHT22;1321;48.690;9.022;2023-09-19T05:49:56;17.90;44.80
2623;DHT22;1321;48.690;9.022;2023-09-19T05:52:28;17.80;1.00
2623;DHT22;1321;48.690;9.022;2023-09-19T05:54:59;17.80;99.90
2623;DHT22;1321;48.690;9.022;2023-09-19T05:57:30;17.80;1.00
2623;DHT22;1321;48.690;9.022;2023-09-19T05:59:59;17.90;1.00
2623;DHT22;1321;48.690;9.022;2023-09-19T06:02:29;17.90;99.90
2623;DHT22;1321;48.690;9.022;2023-09-19T06:04:58;17.90;99.90
2623;DHT22;1321;48.690;9.022;2023-09-19T06:07:29;17.90;36.50
2623;DHT22;1321;48.690;9.022;2023-09-19T06:10:06;18.00;35.70
2623;DHT22;1321;48.690;9.022;2023-09-19T06:12:38;18.00;99.90
2623;DHT22;1321;48.690;9.022;2023-09-19T06:15:08;17.90;44.30
2623;DHT22;1321;48.690;9.022;2023-09-19T06:17:42;17.90;99.90
2623;DHT22;1321;48.690;9.022;2023-09-19T06:20:13;17.90;1.00
2623;DHT22;1321;48.690;9.022;2023-09-19T06:22:46;17.90;1.00
2623;DHT22;1321;48.690;9.022;2023-09-19T06:25:17;17.90;99.90
2623;DHT22;1321;48.690;9.022;2023-09-19T06:27:48;17.90;99.90
2623;DHT22;1321;48.690;9.022;2023-09-19T06:30:21;17.90;1.00
2623;DHT22;1321;48.690;9.022;2023-09-19T06:32:55;18.00;1.00
2623;DHT22;1321;48.690;9.022;2023-09-19T06:35:27;18.00;99.90
2623;DHT22;1321;48.690;9.022;2023-09-19T06:37:59;18.10;99.90
2623;DHT22;1321;48.690;9.022;2023-09-19T06:40:30;18.10;15.90
2623;DHT22;1321;48.690;9.022;2023-09-19T06:42:58;18.20;99.90
2623;DHT22;1321;48.690;9.022;2023-09-19T06:45:29;18.20;99.90
2623;DHT22;1321;48.690;9.022;2023-09-19T06:47:58;18.30;99.90
2623;DHT22;1321;48.690;9.022;2023-09-19T06:50:29;18.30;99.90
2623;DHT22;1321;48.690;9.022;2023-09-19T06:53:38;18.30;99.90
2623;DHT22;1321;48.690;9.022;2023-09-19T06:56:25;18.30;96.50
2623;DHT22;1321;48.690;9.022;2023-09-19T06:59:34;18.40;99.90
2623;DHT22;1321;48.690;9.022;2023-09-19T07:02:31;18.50;99.90
2623;DHT22;1321;48.690;9.022;2023-09-19T07:05:44;18.50;1.00
2623;DHT22;1321;48.690;9.022;2023-09-19T07:08:36;18.50;99.90
2623;DHT22;1321;48.690;9.022;2023-09-19T07:11:24;18.50;1.00
2623;DHT22;1321;48.690;9.022;2023-09-19T07:18:03;18.60;99.90
2623;DHT22;1321;48.690;9.022;2023-09-19T07:21:13;18.70;99.90
2623;DHT22;1321;48.690;9.022;2023-09-19T07:27:13;18.70;99.90
2623;DHT22;1321;48.690;9.022;2023-09-19T07:30:24;18.80;90.70
2623;DHT22;1321;48.690;9.022;2023-09-19T07:33:24;18.90;30.70
2623;DHT22;1321;48.690;9.022;2023-09-19T07:36:14;18.90;1.00
2623;DHT22;1321;48.690;9.022;2023-09-19T07:39:28;19.00;1.00
2623;DHT22;1321;48.690;9.022;2023-09-19T07:42:47;19.10;1.00
2623;DHT22;1321;48.690;9.022;2023-09-19T07:45:51;19.30;1.00
2623;DHT22;1321;48.690;9.022;2023-09-19T07:48:59;19.40;87.00
2623;DHT22;1321;48.690;9.022;2023-09-19T07:52:15;19.50;1.00
2623;DHT22;1321;48.690;9.022;2023-09-19T07:55:21;19.70;1.00
2623;DHT22;1321;48.690;9.022;2023-09-19T07:58:33;19.80;99.90
2623;DHT22;1321;48.690;9.022;2023-09-19T08:04:30;20.10;1.00
2623;DHT22;1321;48.690;9.022;2023-09-19T08:07:52;20.50;1.00
2623;DHT22;1321;48.690;9.022;2023-09-19T08:10:46;20.70;1.00
2623;DHT22;1321;48.690;9.022;2023-09-19T08:14:04;20.90;1.00
2623;DHT22;1321;48.690;9.022;2023-09-19T08:17:10;21.00;1.00
2623;DHT22;1321;48.690;9.022;2023-09-19T08:20:02;21.10;1.00
2623;DHT22;1321;48.690;9.022;2023-09-19T08:23:11;21.20;1.00
2623;DHT22;1321;48.690;9.022;2023-09-19T08:26:14;21.20;1.00
2623;DHT22;1321;48.690;9.022;2023-09-19T08:29:08;21.30;1.00
2623;DHT22;1321;48.690;9.022;2023-09-19T08:32:14;21.40;1.00
2623;DHT22;1321;48.690;9.022;2023-09-19T08:35:07;21.40;99.90
2623;DHT22;1321;48.690;9.022;2023-09-19T08:37:53;21.20;99.90
2623;DHT22;1321;48.690;9.022;2023-09-19T08:40:58;21.30;99.90
2623;DHT22;1321;48.690;9.022;2023-09-19T08:43:49;21.30;99.90
2623;DHT22;1321;48.690;9.022;2023-09-19T08:46:49;21.10;99.90
2623;DHT22;1321;48.690;9.022;2023-09-19T08:49:41;21.10;99.90
2623;DHT22;1321;48.690;9.022;2023-09-19T08:52:41;21.20;99.90
2623;DHT22;1321;48.690;9.022;2023-09-19T08:55:52;21.30;99.90
2623;DHT22;1321;48.690;9.022;2023-09-19T09:02:41;21.40;99.90
2623;DHT22;1321;48.690;9.022;2023-09-19T09:06:29;21.50;99.90
2623;DHT22;1321;48.690;9.022;2023-09-19T09:09:14;21.60;99.90
2623;DHT22;1321;48.690;9.022;2023-09-19T09:12:19;21.90;99.90
2623;DHT22;1321;48.690;9.022;2023-09-19T09:15:31;21.90;99.90
2623;DHT22;1321;48.690;9.022;2023-09-19T09:18:23;21.80;99.90
2623;DHT22;1321;48.690;9.022;2023-09-19T09:21:06;21.70;99.90
2623;DHT22;1321;48.690;9.022;2023-09-19T09:23:40;22.10;99.90
2623;DHT22;1321;48.690;9.022;2023-09-19T09:26:17;22.10;99.90
2623;DHT22;1321;48.690;9.022;2023-09-19T09:28:56;22.40;99.90
2623;DHT22;1321;48.690;9.022;2023-09-19T09:31:37;22.30;99.90
2623;DHT22;1321;48.690;9.022;2023-09-19T09:34:40;22.60;99.90
2623;DHT22;1321;48.690;9.022;2023-09-19T09:37:42;22.60;99.90
2623;DHT22;1321;48.690;9.022;2023-09-19T09:40:46;22.60;99.90
2623;DHT22;1321;48.690;9.022;2023-09-19T09:43:37;22.70;99.90
2623;DHT22;1321;48.690;9.022;2023-09-19T09:46:21;22.70;99.90
2623;DHT22;1321;48.690;9.022;2023-09-19T09:49:29;22.60;99.90
2623;DHT22;1321;48.690;9.022;2023-09-19T09:52:24;22.70;99.90
2623;DHT22;1321;48.690;9.022;2023-09-19T09:55:00;22.50;99.90
2623;DHT22;1321;48.690;9.022;2023-09-19T09:57:38;22.60;99.90
2623;DHT22;1321;48.690;9.022;2023-09-19T10:00:24;22.80;99.90
2623;DHT22;1321;48.690;9.022;2023-09-19T10:03:20;22.90;99.90
2623;DHT22;1321;48.690;9.022;2023-09-19T10:06:40;22.70;99.90
2623;DHT22;1321;48.690;9.022;2023-09-19T10:09:23;22.80;99.90
2623;DHT22;1321;48.690;9.022;2023-09-19T10:12:08;22.80;99.90
2623;DHT22;1321;48.690;9.022;2023-09-19T10:14:44;22.80;99.90
2623;DHT22;1321;48.690;9.022;2023-09-19T10:17:34;22.90;99.90
2623;DHT22;1321;48.690;9.022;2023-09-19T10:20:21;23.20;99.90
2623;DHT22;1321;48.690;9.022;2023-09-19T10:23:12;23.20;99.90
2623;DHT22;1321;48.690;9.022;2023-09-19T10:25:54;23.20;99.90
2623;DHT22;1321;48.690;9.022;2023-09-19T10:28:35;23.30;99.90
2623;DHT22;1321;48.690;9.022;2023-09-19T10:31:11;23.30;99.90
2623;DHT22;1321;48.690;9.022;2023-09-19T10:33:47;23.50;99.90
2623;DHT22;1321;48.690;9.022;2023-09-19T10:36:35;23.50;99.90
2623;DHT22;1321;48.690;9.022;2023-09-19T10:39:15;23.20;99.90
2623;DHT22;1321;48.690;9.022;2023-09-19T10:42:11;23.20;99.90
2623;DHT22;1321;48.690;9.022;2023-09-19T10:44:52;23.20;99.90
2623;DHT22;1321;48.690;9.022;2023-09-19T10:47:25;23.10;99.90
2623;DHT22;1321;48.690;9.022;2023-09-19T10:50:05;23.20;99.90
2623;DHT22;1321;48.690;9.022;2023-09-19T10:52:56;23.40;99.90
2623;DHT22;1321;48.690;9.022;2023-09-19T10:55:47;23.50;99.90
2623;DHT22;1321;48.690;9.022;2023-09-19T10:58:39;23.60;99.90
2623;DHT22;1321;48.690;9.022;2023-09-19T11:01:42;23.90;99.90
2623;DHT22;1321;48.690;9.022;2023-09-19T11:04:24;24.00;99.90
2623;DHT22;1321;48.690;9.022;2023-09-19T11:07:06;23.90;99.90
2623;DHT22;1321;48.690;9.022;2023-09-19T11:09:52;23.70;99.90
2623;DHT22;1321;48.690;9.022;2023-09-19T11:12:50;23.70;99.90
2623;DHT22;1321;48.690;9.022;2023-09-19T11:16:06;23.80;99.90
2623;DHT22;1321;48.690;9.022;2023-09-19T11:19:02;23.80;99.90
2623;DHT22;1321;48.690;9.022;2023-09-19T11:21:54;23.90;99.90
2623;DHT22;1321;48.690;9.022;2023-09-19T11:24:33;23.60;99.90
2623;DHT22;1321;48.690;9.022;2023-09-19T11:27:22;23.50;99.90
2623;DHT22;1321;48.690;9.022;2023-09-19T11:30:26;23.50;99.90
2623;DHT22;1321;48.690;9.022;2023-09-19T11:33:20;23.60;99.90
2623;DHT22;1321;48.690;9.022;2023-09-19T11:39:26;23.60;99.90
2623;DHT22;1321;48.690;9.022;2023-09-19T11:49:25;23.40;99.90
2623;DHT22;1321;48.690;9.022;2023-09-19T11:52:08;23.50;99.90
2623;DHT22;1321;48.690;9.022;2023-09-19T11:54:47;23.60;99.90
2623;DHT22;1321;48.690;9.022;2023-09-19T11:57:39;23.60;99.90
2623;DHT22;1321;48.690;9.022;2023-09-19T12:00:20;23.50;99.90
2623;DHT22;1321;48.690;9.022;2023-09-19T12:07:14;23.70;99.90
2623;DHT22;1321;48.690;9.022;2023-09-19T12:10:17;23.80;99.90
2623;DHT22;1321;48.690;9.022;2023-09-19T12:12:58;23.70;99.90
2623;DHT22;1321;48.690;9.022;2023-09-19T12:15:57;23.70;99.90
2623;DHT22;1321;48.690;9.022;2023-09-19T12:37:07;23.60;99.90
2623;DHT22;1321;48.690;9.022;2023-09-19T12:40:06;23.70;99.90
2623;DHT22;1321;48.690;9.022;2023-09-19T12:42:49;23.70;99.90
2623;DHT22;1321;48.690;9.022;2023-09-19T12:45:24;23.60;99.90
2623;DHT22;1321;48.690;9.022;2023-09-19T12:48:20;23.30;99.90
2623;DHT22;1321;48.690;9.022;2023-09-19T12:51:04;23.20;99.90
2623;DHT22;1321;48.690;9.022;2023-09-19T12:53:57;23.40;99.90
2623;DHT22;1321;48.690;9.022;2023-09-19T12:56:42;23.30;99.90
2623;DHT22;1321;48.690;9.022;2023-09-19T12:59:32;23.30;99.90
2623;DHT22;1321;48.690;9.022;2023-09-19T13:02:12;23.50;99.90
2623;DHT22;1321;48.690;9.022;2023-09-19T13:24:48;23.20;99.90
2623;DHT22;1321;48.690;9.022;2023-09-19T13:27:43;23.40;99.90
2623;DHT22;1321;48.690;9.022;2023-09-19T13:30:50;23.40;99.90
2623;DHT22;1321;48.690;9.022;2023-09-19T13:33:48;23.40;99.90
2623;DHT22;1321;48.690;9.022;2023-09-19T13:39:44;23.50;99.90
2623;DHT22;1321;48.690;9.022;2023-09-19T13:42:56;23.50;99.90
2623;DHT22;1321;48.690;9.022;2023-09-19T13:46:16;23.30;99.90
2623;DHT22;1321;48.690;9.022;2023-09-19T13:49:09;23.30;99.90
2623;DHT22;1321;48.690;9.022;2023-09-19T13:52:06;23.30;99.90
2623;DHT22;1321;48.690;9.022;2023-09-19T13:54:59;23.30;99.90
2623;DHT22;1321;48.690;9.022;2023-09-19T13:57:44;23.20;99.90
2623;DHT22;1321;48.690;9.022;2023-09-19T14:00:32;23.30;99.90
2623;DHT22;1321;48.690;9.022;2023-09-19T14:03:02;23.40;99.90
2623;DHT22;1321;48.690;9.022;2023-09-19T14:05:31;23.40;99.90
2623;DHT22;1321;48.690;9.022;2023-09-19T14:08:00;23.30;99.90
2623;DHT22;1321;48.690;9.022;2023-09-19T14:10:30;23.40;99.90
2623;DHT22;1321;48.690;9.022;2023-09-19T14:13:06;23.40;99.90
2623;DHT22;1321;48.690;9.022;2023-09-19T14:15:52;23.40;99.90
2623;DHT22;1321;48.690;9.022;2023-09-19T14:18:44;23.50;99.90
2623;DHT22;1321;48.690;9.022;2023-09-19T14:21:44;23.50;99.90
2623;DHT22;1321;48.690;9.022;2023-09-19T14:24:54;23.50;99.90
2623;DHT22;1321;48.690;9.022;2023-09-19T14:28:10;23.50;99.90
2623;DHT22;1321;48.690;9.022;2023-09-19T14:30:58;23.50;99.90
2623;DHT22;1321;48.690;9.022;2023-09-19T14:41:54;23.50;99.90
2623;DHT22;1321;48.690;9.022;2023-09-19T14:44:50;23.40;99.90
2623;DHT22;1321;48.690;9.022;2023-09-19T14:47:35;23.30;99.90
2623;DHT22;1321;48.690;9.022;2023-09-19T14:53:30;23.50;99.90
2623;DHT22;1321;48.690;9.022;2023-09-19T15:00:42;23.60;99.90
2623;DHT22;1321;48.690;9.022;2023-09-19T15:03:47;23.40;99.90
2623;DHT22;1321;48.690;9.022;2023-09-19T15:06:48;23.30;99.90
2623;DHT22;1321;48.690;9.022;2023-09-19T15:09:28;23.30;99.90
2623;DHT22;1321;48.690;9.022;2023-09-19T15:12:49;23.20;99.90
2623;DHT22;1321;48.690;9.022;2023-09-19T15:16:08;23.10;99.90
2623;DHT22;1321;48.690;9.022;2023-09-19T15:19:44;23.10;99.90
2623;DHT22;1321;48.690;9.022;2023-09-19T15:22:52;23.20;99.90
2623;DHT22;1321;48.690;9.022;2023-09-19T15:26:00;23.30;99.90
2623;DHT22;1321;48.690;9.022;2023-09-19T15:28:45;23.30;99.90
2623;DHT22;1321;48.690;9.022;2023-09-19T15:31:38;23.30;99.90
2623;DHT22;1321;48.690;9.022;2023-09-19T15:34:09;23.20;99.90
2623;DHT22;1321;48.690;9.022;2023-09-19T15:44:17;23.10;99.90
2623;DHT22;1321;48.690;9.022;2023-09-19T15:47:40;23.10;99.90
2623;DHT22;1321;48.690;9.022;2023-09-19T15:50:43;22.90;99.90
2623;DHT22;1321;48.690;9.022;2023-09-19T15:56:08;23.00;99.90
2623;DHT22;1321;48.690;9.022;2023-09-19T15:59:48;23.00;99.90
2623;DHT22;1321;48.690;9.022;2023-09-19T16:02:41;23.00;99.90
2623;DHT22;1321;48.690;9.022;2023-09-19T16:05:26;23.00;99.90
2623;DHT22;1321;48.690;9.022;2023-09-19T16:08:12;23.00;99.90
2623;DHT22;1321;48.690;9.022;2023-09-19T16:11:33;23.10;99.90
2623;DHT22;1321;48.690;9.022;2023-09-19T16:14:13;23.00;99.90
2623;DHT22;1321;48.690;9.022;2023-09-19T16:17:02;23.00;99.90
2623;DHT22;1321;48.690;9.022;2023-09-19T16:20:18;22.90;99.90
2623;DHT22;1321;48.690;9.022;2023-09-19T16:22:49;22.90;99.90
2623;DHT22;1321;48.690;9.022;2023-09-19T16:28:58;22.90;99.90
2623;DHT22;1321;48.690;9.022;2023-09-19T16:35:31;22.90;99.90
2623;DHT22;1321;48.690;9.022;2023-09-19T16:42:04;22.70;99.90
2623;DHT22;1321;48.690;9.022;2023-09-19T16:45:34;22.60;99.90
2623;DHT22;1321;48.690;9.022;2023-09-19T16:48:15;22.70;99.90
2623;DHT22;1321;48.690;9.022;2023-09-19T16:51:24;22.60;99.90
2623;DHT22;1321;48.690;9.022;2023-09-19T16:54:27;22.40;99.90
2623;DHT22;1321;48.690;9.022;2023-09-19T16:57:34;22.50;99.90
2623;DHT22;1321;48.690;9.022;2023-09-19T17:04:33;22.40;99.90
2623;DHT22;1321;48.690;9.022;2023-09-19T17:07:46;22.30;99.90
2623;DHT22;1321;48.690;9.022;2023-09-19T17:10:58;22.30;99.90
2623;DHT22;1321;48.690;9.022;2023-09-19T17:14:27;22.20;99.90
2623;DHT22;1321;48.690;9.022;2023-09-19T17:17:11;22.10;99.90
2623;DHT22;1321;48.690;9.022;2023-09-19T17:19:48;22.00;99.90
2623;DHT22;1321;48.690;9.022;2023-09-19T17:26:33;21.90;99.90
2623;DHT22;1321;48.690;9.022;2023-09-19T17:29:48;21.80;99.90
2623;DHT22;1321;48.690;9.022;2023-09-19T17:32:42;21.80;99.90
2623;DHT22;1321;48.690;9.022;2023-09-19T17:35:22;21.80;99.90
2623;DHT22;1321;48.690;9.022;2023-09-19T17:38:01;21.80;99.90
2623;DHT22;1321;48.690;9.022;2023-09-19T17:41:23;21.70;99.90
2623;DHT22;1321;48.690;9.022;2023-09-19T17:44:57;21.60;99.90
2623;DHT22;1321;48.690;9.022;2023-09-19T17:48:00;21.50;99.90
2623;DHT22;1321;48.690;9.022;2023-09-19T17:51:06;21.40;99.90
2623;DHT22;1321;48.690;9.022;2023-09-19T17:54:14;21.40;99.90
2623;DHT22;1321;48.690;9.022;2023-09-19T17:57:26;21.30;99.90
2623;DHT22;1321;48.690;9.022;2023-09-19T18:00:14;21.30;99.90
2623;DHT22;1321;48.690;9.022;2023-09-19T18:02:54;21.30;99.90
2623;DHT22;1321;48.690;9.022;2023-09-19T18:05:25;21.30;99.90
2623;DHT22;1321;48.690;9.022;2023-09-19T18:08:12;21.10;99.90
2623;DHT22;1321;48.690;9.022;2023-09-19T18:14:35;21.20;99.90
2623;DHT22;1321;48.690;9.022;2023-09-19T18:18:12;21.10;99.90
2623;DHT22;1321;48.690;9.022;2023-09-19T18:21:22;21.10;99.90
2623;DHT22;1321;48.690;9.022;2023-09-19T18:24:05;21.00;99.90
2623;DHT22;1321;48.690;9.022;2023-09-19T18:27:05;21.00;99.90
2623;DHT22;1321;48.690;9.022;2023-09-19T18:30:06;20.90;99.90
2623;DHT22;1321;48.690;9.022;2023-09-19T18:33:13;20.90;99.90
2623;DHT22;1321;48.690;9.022;2023-09-19T18:36:05;21.00;99.90
2623;DHT22;1321;48.690;9.022;2023-09-19T18:39:03;20.90;99.90
2623;DHT22;1321;48.690;9.022;2023-09-19T18:41:59;20.80;99.90
2623;DHT22;1321;48.690;9.022;2023-09-19T18:45:07;20.80;99.90
2623;DHT22;1321;48.690;9.022;2023-09-19T18:51:25;20.80;99.90
2623;DHT22;1321;48.690;9.022;2023-09-19T18:54:04;20.80;99.90
2623;DHT22;1321;48.690;9.022;2023-09-19T18:56:56;20.60;99.90
2623;DHT22;1321;48.690;9.022;2023-09-19T18:59:40;20.60;99.90
2623;DHT22;1321;48.690;9.022;2023-09-19T19:05:52;20.50;99.90
2623;DHT22;1321;48.690;9.022;2023-09-19T19:09:06;20.50;99.90
2623;DHT22;1321;48.690;9.022;2023-09-19T19:12:25;20.50;99.90
2623;DHT22;1321;48.690;9.022;2023-09-19T19:15:26;20.50;99.90
2623;DHT22;1321;48.690;9.022;2023-09-19T19:18:11;20.40;99.90
2623;DHT22;1321;48.690;9.022;2023-09-19T19:28:01;20.20;99.90
2623;DHT22;1321;48.690;9.022;2023-09-19T19:30:35;20.20;99.90
2623;DHT22;1321;48.690;9.022;2023-09-19T19:33:04;20.20;99.90
2623;DHT22;1321;48.690;9.022;2023-09-19T19:35:37;20.20;99.90
2623;DHT22;1321;48.690;9.022;2023-09-19T19:38:07;20.10;99.90
2623;DHT22;1321;48.690;9.022;2023-09-19T19:40:36;20.20;99.90
2623;DHT22;1321;48.690;9.022;2023-09-19T19:43:13;20.10;99.90
2623;DHT22;1321;48.690;9.022;2023-09-19T19:46:17;20.00;99.90
2623;DHT22;1321;48.690;9.022;2023-09-19T19:49:09;20.00;99.90
2623;DHT22;1321;48.690;9.022;2023-09-19T19:52:56;20.00;99.90
2623;DHT22;1321;48.690;9.022;2023-09-19T19:55:17;20.00;99.90
2623;DHT22;1321;48.690;9.022;2023-09-19T19:58:24;19.50;99.90
2623;DHT22;1321;48.690;9.022;2023-09-19T20:01:01;19.70;99.90
2623;DHT22;1321;48.690;9.022;2023-09-19T20:03:47;19.70;99.90
2623;DHT22;1321;48.690;9.022;2023-09-19T20:07:02;19.60;99.90
2623;DHT22;1321;48.690;9.022;2023-09-19T20:09:50;19.60;99.90
2623;DHT22;1321;48.690;9.022;2023-09-19T20:16:32;19.60;99.90
2623;DHT22;1321;48.690;9.022;2023-09-19T20:19:21;19.50;99.90
2623;DHT22;1321;48.690;9.022;2023-09-19T20:22:37;19.60;99.90
2623;DHT22;1321;48.690;9.022;2023-09-19T20:25:01;19.50;99.90
2623;DHT22;1321;48.690;9.022;2023-09-19T20:27:56;19.60;99.90
2623;DHT22;1321;48.690;9.022;2023-09-19T20:30:56;19.50;99.90
2623;DHT22;1321;48.690;9.022;2023-09-19T20:40:43;19.20;99.90
2623;DHT22;1321;48.690;9.022;2023-09-19T20:43:11;19.30;99.90
2623;DHT22;1321;48.690;9.022;2023-09-19T20:45:41;19.30;99.90
2623;DHT22;1321;48.690;9.022;2023-09-19T20:48:12;19.20;99.90